• Join FlightAware (Why Join?)
  • Login
  • US Flag 
12:41PM EDT


 

Airport Tracker/Info


-or-


 

Live Flight TrackerFlight Track Log ✈ CSN3852 ✈ 10-May-2013 ✈ ZSSS / SHA - ZGOW / SWA

Flight Track Log - Related Links

Times and Time Zones

All times are in EDT time to prevent confusion due to time zone crossing. See the CSN3852 flight status page for this flight to view local times or setup timezone preferences in your user account.

Time Position Orientation Groundspeed Altitude Reporting Facility
EDT Latitude Longitude Course Direction KTS MPH feet Rate Location/Type
10:52PM 31.2240 121.3310 355° North 160 184 1,400  Level FlightAware
10:53PM 31.2430 121.3290 355° North 176 203 2,200 1,620 Climbing FlightAware
10:53PM 31.2670 121.3210 344° North 206 237 2,900 1,560 Climbing FlightAware
10:53PM 31.2760 121.3120 319° Northwest 206 237 3,400 2,160 Climbing FlightAware
10:54PM 31.2830 121.2920 292° West 233 268 4,000 2,280 Climbing FlightAware
10:54PM 31.2810 121.2380 268° West 254 292 5,500 2,280 Climbing FlightAware
10:55PM 31.2760 121.2180 254° West 265 305 6,100 3,060 Climbing FlightAware
10:55PM 31.2630 121.1940 238° Southwest 256 295 7,300 2,040 Climbing FlightAware
10:56PM 31.2390 121.1550 234° Southwest 255 293 8,000 900 Climbing FlightAware
10:56PM 31.2190 121.1280 229° Southwest 259 298 8,200 360 Climbing FlightAware
10:56PM 31.2140 121.1260 199° South 267 307 8,200 1,800 Level FlightAware
10:56PM 31.1970 121.1190 199° South 272 313 8,800 2,460 Climbing FlightAware
10:57PM 31.1410 121.1220 177° South 294 338 10,500 1,860 Climbing FlightAware
10:58PM 31.0870 121.1130 188° South 339 390 11,300 1,800 Climbing FlightAware
10:58PM 31.0660 121.0920 221° Southwest 331 381 12,200 3,300 Climbing FlightAware
10:58PM 31.0500 121.0540 244° Southwest 330 380 13,500 2,880 Climbing FlightAware
10:59PM 31.0310 120.9770 254° West 343 395 15,600 2,700 Climbing FlightAware
11:00PM 31.0120 120.8980 254° West 359 413 17,400 2,280 Climbing FlightAware
11:01PM 30.9870 120.7960 254° West 362 417 19,300 2,160 Climbing FlightAware
11:02PM 30.9580 120.6800 254° West 372 428 21,600 2,160 Climbing FlightAware
11:02PM 30.9420 120.6120 255° West 380 437 22,800 900 Climbing FlightAware
11:03PM 30.9230 120.5330 254° West 380 437 22,800  Level FlightAware
11:04PM 30.9080 120.4660 255° West 380 437 22,800  Level FlightAware
11:04PM 30.8920 120.3990 254° West 380 437 22,800  Level FlightAware
11:05PM 30.8730 120.3140 255° West 380 437 22,800  Level FlightAware
11:06PM 30.8580 120.2470 255° West 380 437 22,800 4,560 Level FlightAware
11:06PM 30.6550 120.2550 178° South 30,100 7,920 Climbing FlightAware
11:07PM 30.6050 120.2030 222° Southwest 415 478 30,100  Level FlightAware
11:08PM 30.5350 120.1330 221° Southwest 418 481 30,100  Level FlightAware
11:08PM 30.4710 120.0730 219° Southwest 418 481 30,100  Level FlightAware
11:09PM 30.4200 120.0250 219° Southwest 418 481 30,100  Level FlightAware
11:10PM 30.3690 119.9770 219° Southwest 418 481 30,100  Level FlightAware
11:10PM 30.3180 119.9290 219° Southwest 418 481 30,100  Level FlightAware
11:11PM 30.2670 119.8810 219° Southwest 418 481 30,100  Level FlightAware
11:12PM 30.2030 119.8210 219° Southwest 418 481 30,100  Level FlightAware
11:13PM 30.1520 119.7740 219° Southwest 418 481 30,100  Level FlightAware
11:13PM 30.1010 119.7260 219° Southwest 418 481 30,100  Level FlightAware
11:14PM 30.0500 119.6780 219° Southwest 418 481 30,100  Level FlightAware
11:15PM 29.9980 119.6300 219° Southwest 418 481 30,100  Level FlightAware
11:15PM 29.9350 119.5700 220° Southwest 418 481 30,100  Level FlightAware
11:16PM 29.8830 119.5230 218° Southwest 418 481 30,100  Level FlightAware
11:17PM 29.8320 119.4750 219° Southwest 418 481 30,100  Level FlightAware
11:19PM 29.6757 119.4047 201° Southwest  Level Estimated
11:20PM 29.5889 119.3657 201° Southwest  Level Estimated
11:21PM 29.5021 119.3268 201° Southwest  Level Estimated
11:22PM 29.4152 119.2879 201° Southwest  Level Estimated
11:22PM 28.8390 119.5550 201° Southwest 443 510 30,100  Level FlightAware
11:23PM 28.7690 119.5440 188° South 442 509 30,100  Level FlightAware
11:24PM 28.6620 119.5360 184° South 446 513 30,100  Level FlightAware
11:24PM 28.5840 119.5320 183° South 446 513 30,100  Level FlightAware
11:25PM 28.5110 119.5280 183° South 448 516 30,100  Level FlightAware
11:26PM 28.4270 119.5240 182° South 448 516 30,100  Level FlightAware
11:27PM 28.3160 119.5170 183° South 447 514 30,100  Level FlightAware
11:27PM 28.2350 119.5120 183° South 447 514 30,100  Level FlightAware
11:28PM 28.1480 119.5070 183° South 449 517 30,100  Level FlightAware
11:29PM 28.0630 119.5050 181° South 450 518 30,100  Level FlightAware
11:29PM 27.9650 119.5040 181° South 449 517 30,100 -180 Level FlightAware
11:30PM 27.8840 119.5040 180° South 450 518 29,900 -300 Descending FlightAware
11:31PM 27.8000 119.5030 181° South 449 517 29,700 -180 Descending FlightAware
11:31PM 27.7290 119.5030 180° South 449 517 29,700  Level FlightAware
11:32PM 27.6590 119.5030 180° South 449 517 29,700 -1,500 Level FlightAware
11:33PM 27.5280 119.5010 181° South 449 517 27,600 -1,620 Descending FlightAware
11:33PM 27.4650 119.5010 180° South 449 517 27,600  Level FlightAware
11:34PM 27.3460 119.5020 180° South 454 522 27,600  Level FlightAware
11:35PM 27.2450 119.5000 181° South 451 519 27,600  Level FlightAware
11:36PM 27.1480 119.4990 181° South 453 521 27,600  Level FlightAware
11:37PM 27.0560 119.4970 181° South 456 525 27,600  Level FlightAware
11:37PM 26.9700 119.4970 180° South 458 527 27,600  Level FlightAware
11:38PM 26.8890 119.4970 180° South 461 531 27,600  Level FlightAware
11:39PM 26.7880 119.4960 181° South 463 533 27,600  Level FlightAware
11:39PM 26.7020 119.4960 180° South 464 534 27,600  Level FlightAware
11:40PM 26.6140 119.4950 181° South 463 533 27,600  Level FlightAware
11:41PM 26.5230 119.4950 180° South 460 529 27,600  Level FlightAware
11:41PM 26.4360 119.4940 181° South 459 528 27,600  Level FlightAware
11:42PM 26.3430 119.4930 181° South 460 529 27,600  Level FlightAware
11:43PM 26.2670 119.4930 180° South 458 527 27,600  Level FlightAware
11:44PM 26.1790 119.4860 184° South 455 524 27,600  Level FlightAware
11:44PM 26.1080 119.4800 184° South 455 524 27,600  Level FlightAware
11:45PM 26.0080 119.4180 209° Southwest 451 519 27,600  Level FlightAware
11:46PM 25.9100 119.3850 197° South 452 520 27,600  Level FlightAware
11:46PM 25.8310 119.3580 197° South 453 521 27,600  Level FlightAware
11:47PM 25.7570 119.3200 205° Southwest 438 504 27,600  Level FlightAware
11:48PM 25.6920 119.2480 225° Southwest 435 501 27,600  Level FlightAware
11:48PM 25.6380 119.1850 226° Southwest 439 505 27,600 -360 Level FlightAware
11:49PM 25.5760 119.1120 227° Southwest 443 510 27,100 -720 Descending FlightAware
11:50PM 25.5170 119.0430 227° Southwest 438 504 26,600 -540 Descending FlightAware
11:51PM 25.4590 118.9760 226° Southwest 435 501 26,400 -660 Descending FlightAware
11:51PM 25.3990 118.9050 227° Southwest 435 501 25,700 -600 Descending FlightAware
11:52PM 25.3450 118.8410 227° Southwest 436 502 25,600 -120 Descending FlightAware
11:53PM 25.2850 118.7680 228° Southwest 434 499 25,600  Level FlightAware
11:53PM 25.2270 118.6990 227° Southwest 433 498 25,600  Level FlightAware
11:54PM 25.1570 118.6150 227° Southwest 433 498 25,600  Level FlightAware
11:55PM 25.1110 118.5600 227° Southwest 433 498 25,600  Level FlightAware
11:56PM 25.0640 118.5050 227° Southwest 433 498 25,600  Level FlightAware
11:56PM 25.0180 118.4500 227° Southwest 433 498 25,600  Level FlightAware
11:57PM 24.9600 118.3810 227° Southwest 433 498 25,600  Level FlightAware
11:58PM 24.9130 118.3260 227° Southwest 433 498 25,600  Level FlightAware
12:00AM 24.7982 118.2032 224° Southwest  Level Estimated
12:01AM 24.7312 118.1318 224° Southwest  Level Estimated
12:02AM 24.6642 118.0604 224° Southwest  Level Estimated
12:03AM 24.5972 117.9892 224° Southwest  Level Estimated
12:04AM 24.5302 117.9180 224° Southwest  Level Estimated
12:05AM 24.4631 117.8469 224° Southwest  Level Estimated
12:06AM 24.3960 117.7758 224° Southwest  Level Estimated
12:07AM 24.3289 117.7048 224° Southwest  Level Estimated
12:08AM 24.2617 117.6340 224° Southwest  Level Estimated
12:09AM 24.1945 117.5631 224° Southwest  Level Estimated
12:10AM 24.1273 117.4924 224° Southwest  Level Estimated
12:11AM 24.0600 117.4217 224° Southwest  Level Estimated
12:12AM 23.9927 117.3511 224° Southwest  Level Estimated
12:13AM 23.9254 117.2806 224° Southwest  Level Estimated
12:14AM 23.8580 117.2102 224° Southwest  Level Estimated
12:15AM 23.7906 117.1398 224° Southwest  Level Estimated
12:16AM 23.7232 117.0695 224° Southwest  Level Estimated
12:17AM 23.6557 116.9993 224° Southwest  Level Estimated
12:18AM 23.5836 116.9243 224° Southwest  Level Estimated
12:19AM 23.5114 116.8495 224° Southwest  Level Estimated
12:20AM 23.4393 116.7747 224° Southwest  Level Estimated
12:21AM 23.4269 116.7619 224° Southwest  Level Estimated
12:22AM 23.4269 116.7619 43° Northeast  Level Estimated
12:23AM 23.4269 116.7619 43° Northeast  Level Estimated
12:24AM 23.4269 116.7619 43° Northeast  Level Estimated
12:25AM 23.4269 116.7619 43° Northeast  Level Estimated
12:26AM 23.4269 116.7619 43° Northeast  Level Estimated
12:27AM 23.4269 116.7619 43° Northeast  Level Estimated
12:28AM 23.4269 116.7619 43° Northeast  Level Estimated
12:29AM 23.4269 116.7619 43° Northeast  Level Estimated
12:30AM 23.4269 116.7619 43° Northeast  Level Estimated
12:31AM 23.4269 116.7619 43° Northeast  Level Estimated
12:32AM 23.4269 116.7619 43° Northeast  Level Estimated
12:33AM 23.4269 116.7619 43° Northeast  Level Estimated
12:34AM 23.4269 116.7619 43° Northeast  Level Estimated
12:35AM 23.4269 116.7619 43° Northeast  Level Estimated
12:36AM 23.4269 116.7619 43° Northeast  Level Estimated